Minnetonka Mills, Minnesota
Current Conditions -  °F | °C
As of 1:34 AM on Monday 22 Dec 2014 (Local Time) from KFCM Reporting Station
Haze Haze  
Wind Chill: -1°   Ceiling: 600
Heat Index:   Visibility: 2mi
Dew Point:   Wind: 15mph
Humidity: 93%   Direction: 150°SSE
Pressure: 29.67"   Gusts: NA
Location:  44.9144°N, 93.4174°W
Report Text: KFCM 220734Z AUTO 15013KT 2SM BR OVC006 04/03 A2967 RMK AO2 T00390028
Loading
Personal Weather Stations






























Interactive Weather Map New forecast layout! Learn more

10-Day Weather Forecast

Advertisements
Track Severe Weather on mobile